sensor_id;sensor_type;location;lat;lon;timestamp;pressure;altitude;pressure_sealevel;temperature
45850;BMP180;10739;52.198;20.908;2023-05-19T00:02:24;101477.00;;;15.50
45850;BMP180;10739;52.198;20.908;2023-05-19T00:04:52;101471.00;;;15.70
45850;BMP180;10739;52.198;20.908;2023-05-19T00:07:18;101470.00;;;15.80
45850;BMP180;10739;52.198;20.908;2023-05-19T00:09:46;101463.00;;;16.00
45850;BMP180;10739;52.198;20.908;2023-05-19T00:12:13;101463.00;;;16.10
45850;BMP180;10739;52.198;20.908;2023-05-19T00:14:41;101469.00;;;16.00
45850;BMP180;10739;52.198;20.908;2023-05-19T00:17:08;101468.00;;;16.00
45850;BMP180;10739;52.198;20.908;2023-05-19T00:19:34;101469.00;;;15.90
45850;BMP180;10739;52.198;20.908;2023-05-19T00:22:00;101470.00;;;16.00
45850;BMP180;10739;52.198;20.908;2023-05-19T00:24:27;101469.00;;;15.90
45850;BMP180;10739;52.198;20.908;2023-05-19T00:26:53;101466.00;;;16.00
45850;BMP180;10739;52.198;20.908;2023-05-19T00:29:19;101469.00;;;16.00
45850;BMP180;10739;52.198;20.908;2023-05-19T00:31:47;101465.00;;;15.90
45850;BMP180;10739;52.198;20.908;2023-05-19T00:34:13;101476.00;;;15.70
45850;BMP180;10739;52.198;20.908;2023-05-19T00:36:40;101466.00;;;15.80
45850;BMP180;10739;52.198;20.908;2023-05-19T00:39:07;101463.00;;;15.50
45850;BMP180;10739;52.198;20.908;2023-05-19T00:41:34;101471.00;;;15.70
45850;BMP180;10739;52.198;20.908;2023-05-19T00:44:00;101465.00;;;15.40
45850;BMP180;10739;52.198;20.908;2023-05-19T00:46:26;101479.00;;;15.50
45850;BMP180;10739;52.198;20.908;2023-05-19T00:48:53;101469.00;;;15.40
45850;BMP180;10739;52.198;20.908;2023-05-19T00:51:19;101462.00;;;15.50
45850;BMP180;10739;52.198;20.908;2023-05-19T00:53:47;101465.00;;;15.60
45850;BMP180;10739;52.198;20.908;2023-05-19T00:56:16;101462.00;;;15.30
45850;BMP180;10739;52.198;20.908;2023-05-19T00:58:44;101452.00;;;15.20
45850;BMP180;10739;52.198;20.908;2023-05-19T01:01:11;101456.00;;;15.20
45850;BMP180;10739;52.198;20.908;2023-05-19T01:03:40;101459.00;;;15.40
45850;BMP180;10739;52.198;20.908;2023-05-19T01:06:07;101460.00;;;15.60
45850;BMP180;10739;52.198;20.908;2023-05-19T01:08:37;101449.00;;;15.60
45850;BMP180;10739;52.198;20.908;2023-05-19T01:11:04;101452.00;;;15.50
45850;BMP180;10739;52.198;20.908;2023-05-19T01:13:33;101453.00;;;15.70
45850;BMP180;10739;52.198;20.908;2023-05-19T01:19:00;101452.00;;;15.60
45850;BMP180;10739;52.198;20.908;2023-05-19T01:21:57;101453.00;;;15.60
45850;BMP180;10739;52.198;20.908;2023-05-19T01:27:51;101444.00;;;15.30
45850;BMP180;10739;52.198;20.908;2023-05-19T01:30:39;101443.00;;;15.70
45850;BMP180;10739;52.198;20.908;2023-05-19T01:33:10;101437.00;;;15.40
45850;BMP180;10739;52.198;20.908;2023-05-19T01:35:37;101446.00;;;15.50
45850;BMP180;10739;52.198;20.908;2023-05-19T01:38:09;101445.00;;;15.30
45850;BMP180;10739;52.198;20.908;2023-05-19T01:40:38;101438.00;;;15.50
45850;BMP180;10739;52.198;20.908;2023-05-19T01:43:09;101436.00;;;15.60
45850;BMP180;10739;52.198;20.908;2023-05-19T01:45:36;101444.00;;;15.40
45850;BMP180;10739;52.198;20.908;2023-05-19T01:48:04;101442.00;;;15.50
45850;BMP180;10739;52.198;20.908;2023-05-19T01:50:31;101438.00;;;15.50
45850;BMP180;10739;52.198;20.908;2023-05-19T01:52:59;101431.00;;;15.40
45850;BMP180;10739;52.198;20.908;2023-05-19T01:55:25;101430.00;;;15.60
45850;BMP180;10739;52.198;20.908;2023-05-19T01:58:46;101426.00;;;15.50
45850;BMP180;10739;52.198;20.908;2023-05-19T02:04:14;101427.00;;;15.40
45850;BMP180;10739;52.198;20.908;2023-05-19T02:07:00;101424.00;;;15.40
45850;BMP180;10739;52.198;20.908;2023-05-19T02:09:52;101423.00;;;15.40
45850;BMP180;10739;52.198;20.908;2023-05-19T02:12:28;101419.00;;;15.30
45850;BMP180;10739;52.198;20.908;2023-05-19T02:15:06;101436.00;;;14.90
45850;BMP180;10739;52.198;20.908;2023-05-19T02:17:38;101435.00;;;15.10
45850;BMP180;10739;52.198;20.908;2023-05-19T02:20:08;101434.00;;;15.00
45850;BMP180;10739;52.198;20.908;2023-05-19T02:22:35;101426.00;;;14.70
45850;BMP180;10739;52.198;20.908;2023-05-19T02:25:01;101428.00;;;14.60
45850;BMP180;10739;52.198;20.908;2023-05-19T02:27:27;101426.00;;;14.80
45850;BMP180;10739;52.198;20.908;2023-05-19T02:29:54;101420.00;;;14.90
45850;BMP180;10739;52.198;20.908;2023-05-19T02:32:21;101431.00;;;14.90
45850;BMP180;10739;52.198;20.908;2023-05-19T02:34:47;101425.00;;;15.10
45850;BMP180;10739;52.198;20.908;2023-05-19T02:37:14;101419.00;;;15.20
45850;BMP180;10739;52.198;20.908;2023-05-19T02:39:41;101424.00;;;14.70
45850;BMP180;10739;52.198;20.908;2023-05-19T02:42:08;101418.00;;;14.80
45850;BMP180;10739;52.198;20.908;2023-05-19T02:44:34;101428.00;;;15.00
45850;BMP180;10739;52.198;20.908;2023-05-19T02:47:01;101425.00;;;14.70
45850;BMP180;10739;52.198;20.908;2023-05-19T02:49:27;101435.00;;;15.00
45850;BMP180;10739;52.198;20.908;2023-05-19T02:51:56;101433.00;;;14.90
45850;BMP180;10739;52.198;20.908;2023-05-19T02:54:22;101427.00;;;14.80
45850;BMP180;10739;52.198;20.908;2023-05-19T02:56:48;101434.00;;;14.90
45850;BMP180;10739;52.198;20.908;2023-05-19T02:59:15;101425.00;;;14.90
45850;BMP180;10739;52.198;20.908;2023-05-19T03:01:41;101423.00;;;14.60
45850;BMP180;10739;52.198;20.908;2023-05-19T03:04:07;101423.00;;;14.50
45850;BMP180;10739;52.198;20.908;2023-05-19T03:06:34;101429.00;;;14.70
45850;BMP180;10739;52.198;20.908;2023-05-19T03:09:01;101432.00;;;14.50
45850;BMP180;10739;52.198;20.908;2023-05-19T03:11:27;101426.00;;;14.80
45850;BMP180;10739;52.198;20.908;2023-05-19T03:13:55;101434.00;;;14.30
45850;BMP180;10739;52.198;20.908;2023-05-19T03:16:22;101423.00;;;14.60
45850;BMP180;10739;52.198;20.908;2023-05-19T03:18:49;101431.00;;;14.70
45850;BMP180;10739;52.198;20.908;2023-05-19T03:21:16;101432.00;;;14.80
45850;BMP180;10739;52.198;20.908;2023-05-19T03:23:42;101425.00;;;14.40
45850;BMP180;10739;52.198;20.908;2023-05-19T03:26:08;101437.00;;;14.20
45850;BMP180;10739;52.198;20.908;2023-05-19T03:28:34;101431.00;;;14.40
45850;BMP180;10739;52.198;20.908;2023-05-19T03:31:00;101431.00;;;14.70
45850;BMP180;10739;52.198;20.908;2023-05-19T03:33:27;101438.00;;;14.50
45850;BMP180;10739;52.198;20.908;2023-05-19T03:35:56;101438.00;;;14.60
45850;BMP180;10739;52.198;20.908;2023-05-19T03:38:22;101435.00;;;14.60
45850;BMP180;10739;52.198;20.908;2023-05-19T03:40:49;101426.00;;;14.60
45850;BMP180;10739;52.198;20.908;2023-05-19T03:43:15;101441.00;;;14.50
45850;BMP180;10739;52.198;20.908;2023-05-19T03:45:42;101431.00;;;14.70
45850;BMP180;10739;52.198;20.908;2023-05-19T03:48:08;101431.00;;;14.60
45850;BMP180;10739;52.198;20.908;2023-05-19T03:50:34;101426.00;;;14.60
45850;BMP180;10739;52.198;20.908;2023-05-19T03:53:02;101424.00;;;14.80
45850;BMP180;10739;52.198;20.908;2023-05-19T03:55:29;101430.00;;;14.80
45850;BMP180;10739;52.198;20.908;2023-05-19T03:57:55;101432.00;;;15.00
45850;BMP180;10739;52.198;20.908;2023-05-19T04:00:22;101433.00;;;14.70
45850;BMP180;10739;52.198;20.908;2023-05-19T04:02:48;101441.00;;;15.10
45850;BMP180;10739;52.198;20.908;2023-05-19T04:05:14;101426.00;;;14.70
45850;BMP180;10739;52.198;20.908;2023-05-19T04:07:41;101439.00;;;14.40
45850;BMP180;10739;52.198;20.908;2023-05-19T04:10:08;101439.00;;;14.70
45850;BMP180;10739;52.198;20.908;2023-05-19T04:12:34;101435.00;;;14.90
45850;BMP180;10739;52.198;20.908;2023-05-19T04:15:00;101441.00;;;14.60
45850;BMP180;10739;52.198;20.908;2023-05-19T04:17:27;101439.00;;;14.90
45850;BMP180;10739;52.198;20.908;2023-05-19T04:19:53;101436.00;;;14.80
45850;BMP180;10739;52.198;20.908;2023-05-19T04:22:20;101431.00;;;14.70
45850;BMP180;10739;52.198;20.908;2023-05-19T04:24:46;101430.00;;;14.70
45850;BMP180;10739;52.198;20.908;2023-05-19T04:27:13;101434.00;;;14.90
45850;BMP180;10739;52.198;20.908;2023-05-19T04:29:41;101427.00;;;14.80
45850;BMP180;10739;52.198;20.908;2023-05-19T04:32:07;101437.00;;;14.70
45850;BMP180;10739;52.198;20.908;2023-05-19T04:34:34;101426.00;;;14.70
45850;BMP180;10739;52.198;20.908;2023-05-19T04:37:01;101433.00;;;14.70
45850;BMP180;10739;52.198;20.908;2023-05-19T04:39:27;101437.00;;;14.40
45850;BMP180;10739;52.198;20.908;2023-05-19T04:41:53;101439.00;;;14.20
45850;BMP180;10739;52.198;20.908;2023-05-19T04:44:21;101432.00;;;14.50
45850;BMP180;10739;52.198;20.908;2023-05-19T04:46:47;101430.00;;;14.90
45850;BMP180;10739;52.198;20.908;2023-05-19T04:49:14;101435.00;;;14.70
45850;BMP180;10739;52.198;20.908;2023-05-19T04:51:41;101436.00;;;14.50
45850;BMP180;10739;52.198;20.908;2023-05-19T04:54:07;101431.00;;;14.20
45850;BMP180;10739;52.198;20.908;2023-05-19T04:56:35;101429.00;;;14.40
45850;BMP180;10739;52.198;20.908;2023-05-19T04:59:02;101437.00;;;14.50
45850;BMP180;10739;52.198;20.908;2023-05-19T05:01:28;101432.00;;;14.70
45850;BMP180;10739;52.198;20.908;2023-05-19T05:03:55;101432.00;;;14.60
45850;BMP180;10739;52.198;20.908;2023-05-19T05:06:24;101430.00;;;14.40
45850;BMP180;10739;52.198;20.908;2023-05-19T05:08:50;101436.00;;;14.60
45850;BMP180;10739;52.198;20.908;2023-05-19T05:11:17;101434.00;;;14.50
45850;BMP180;10739;52.198;20.908;2023-05-19T05:13:44;101431.00;;;14.50
45850;BMP180;10739;52.198;20.908;2023-05-19T05:16:11;101436.00;;;14.60
45850;BMP180;10739;52.198;20.908;2023-05-19T05:18:38;101436.00;;;14.60
45850;BMP180;10739;52.198;20.908;2023-05-19T05:21:06;101433.00;;;14.20
45850;BMP180;10739;52.198;20.908;2023-05-19T05:23:33;101432.00;;;14.90
45850;BMP180;10739;52.198;20.908;2023-05-19T05:26:03;101432.00;;;14.60
45850;BMP180;10739;52.198;20.908;2023-05-19T05:28:33;101436.00;;;14.70
45850;BMP180;10739;52.198;20.908;2023-05-19T05:30:59;101434.00;;;14.70
45850;BMP180;10739;52.198;20.908;2023-05-19T05:33:26;101431.00;;;14.80
45850;BMP180;10739;52.198;20.908;2023-05-19T05:35:52;101433.00;;;15.10
45850;BMP180;10739;52.198;20.908;2023-05-19T05:38:18;101431.00;;;14.90
45850;BMP180;10739;52.198;20.908;2023-05-19T05:40:45;101432.00;;;14.80
45850;BMP180;10739;52.198;20.908;2023-05-19T05:43:12;101439.00;;;14.50
45850;BMP180;10739;52.198;20.908;2023-05-19T05:45:38;101428.00;;;14.60
45850;BMP180;10739;52.198;20.908;2023-05-19T05:48:05;101432.00;;;14.60
45850;BMP180;10739;52.198;20.908;2023-05-19T05:50:32;101428.00;;;14.90
45850;BMP180;10739;52.198;20.908;2023-05-19T05:53:00;101435.00;;;15.00
45850;BMP180;10739;52.198;20.908;2023-05-19T05:55:28;101434.00;;;15.00
45850;BMP180;10739;52.198;20.908;2023-05-19T05:57:54;101418.00;;;15.10
45850;BMP180;10739;52.198;20.908;2023-05-19T06:00:21;101429.00;;;15.00
45850;BMP180;10739;52.198;20.908;2023-05-19T06:02:49;101429.00;;;15.20
45850;BMP180;10739;52.198;20.908;2023-05-19T06:05:16;101432.00;;;14.90
45850;BMP180;10739;52.198;20.908;2023-05-19T06:07:43;101420.00;;;15.20
45850;BMP180;10739;52.198;20.908;2023-05-19T06:10:11;101431.00;;;15.50
45850;BMP180;10739;52.198;20.908;2023-05-19T06:12:48;101437.00;;;15.40
45850;BMP180;10739;52.198;20.908;2023-05-19T06:15:15;101438.00;;;15.30
45850;BMP180;10739;52.198;20.908;2023-05-19T06:17:41;101440.00;;;15.40
45850;BMP180;10739;52.198;20.908;2023-05-19T06:20:08;101434.00;;;15.10
45850;BMP180;10739;52.198;20.908;2023-05-19T06:22:35;101441.00;;;15.00
45850;BMP180;10739;52.198;20.908;2023-05-19T06:25:02;101441.00;;;15.50
45850;BMP180;10739;52.198;20.908;2023-05-19T06:27:28;101441.00;;;15.30
45850;BMP180;10739;52.198;20.908;2023-05-19T06:29:56;101443.00;;;15.20
45850;BMP180;10739;52.198;20.908;2023-05-19T06:32:22;101437.00;;;15.40
45850;BMP180;10739;52.198;20.908;2023-05-19T06:34:49;101429.00;;;15.40
45850;BMP180;10739;52.198;20.908;2023-05-19T06:37:22;101431.00;;;15.30
45850;BMP180;10739;52.198;20.908;2023-05-19T06:39:51;101433.00;;;15.40
45850;BMP180;10739;52.198;20.908;2023-05-19T06:42:18;101440.00;;;15.50
45850;BMP180;10739;52.198;20.908;2023-05-19T06:44:52;101436.00;;;15.20
45850;BMP180;10739;52.198;20.908;2023-05-19T06:47:18;101432.00;;;15.10
45850;BMP180;10739;52.198;20.908;2023-05-19T06:49:45;101434.00;;;15.30
45850;BMP180;10739;52.198;20.908;2023-05-19T06:52:16;101429.00;;;15.30
45850;BMP180;10739;52.198;20.908;2023-05-19T06:54:42;101424.00;;;15.20
45850;BMP180;10739;52.198;20.908;2023-05-19T06:57:08;101440.00;;;14.90
45850;BMP180;10739;52.198;20.908;2023-05-19T06:59:35;101433.00;;;15.40
45850;BMP180;10739;52.198;20.908;2023-05-19T07:02:03;101432.00;;;15.50
45850;BMP180;10739;52.198;20.908;2023-05-19T07:04:29;101437.00;;;15.70
45850;BMP180;10739;52.198;20.908;2023-05-19T07:06:55;101432.00;;;15.40
45850;BMP180;10739;52.198;20.908;2023-05-19T07:09:22;101428.00;;;15.60
45850;BMP180;10739;52.198;20.908;2023-05-19T07:11:48;101430.00;;;15.90
45850;BMP180;10739;52.198;20.908;2023-05-19T07:14:15;101421.00;;;15.70
45850;BMP180;10739;52.198;20.908;2023-05-19T07:16:41;101426.00;;;15.30
45850;BMP180;10739;52.198;20.908;2023-05-19T07:19:07;101435.00;;;15.50
45850;BMP180;10739;52.198;20.908;2023-05-19T07:21:34;101422.00;;;15.40
45850;BMP180;10739;52.198;20.908;2023-05-19T07:24:00;101427.00;;;15.60
45850;BMP180;10739;52.198;20.908;2023-05-19T07:26:27;101431.00;;;15.60
45850;BMP180;10739;52.198;20.908;2023-05-19T07:28:54;101437.00;;;15.70
45850;BMP180;10739;52.198;20.908;2023-05-19T07:31:20;101437.00;;;15.60
45850;BMP180;10739;52.198;20.908;2023-05-19T07:33:46;101430.00;;;15.80
45850;BMP180;10739;52.198;20.908;2023-05-19T07:36:13;101430.00;;;15.90
45850;BMP180;10739;52.198;20.908;2023-05-19T07:38:39;101438.00;;;15.70
45850;BMP180;10739;52.198;20.908;2023-05-19T07:41:05;101432.00;;;15.90
45850;BMP180;10739;52.198;20.908;2023-05-19T07:43:31;101429.00;;;15.90
45850;BMP180;10739;52.198;20.908;2023-05-19T07:45:58;101432.00;;;16.10
45850;BMP180;10739;52.198;20.908;2023-05-19T07:48:24;101433.00;;;15.90
45850;BMP180;10739;52.198;20.908;2023-05-19T07:50:52;101423.00;;;16.20
45850;BMP180;10739;52.198;20.908;2023-05-19T07:53:19;101429.00;;;15.90
45850;BMP180;10739;52.198;20.908;2023-05-19T07:55:45;101430.00;;;15.90
45850;BMP180;10739;52.198;20.908;2023-05-19T07:58:12;101428.00;;;16.10
45850;BMP180;10739;52.198;20.908;2023-05-19T08:00:38;101440.00;;;16.30
45850;BMP180;10739;52.198;20.908;2023-05-19T08:03:06;101431.00;;;16.00
45850;BMP180;10739;52.198;20.908;2023-05-19T08:05:34;101442.00;;;16.10
45850;BMP180;10739;52.198;20.908;2023-05-19T08:08:01;101430.00;;;15.90
45850;BMP180;10739;52.198;20.908;2023-05-19T08:10:28;101434.00;;;16.00
45850;BMP180;10739;52.198;20.908;2023-05-19T08:12:54;101442.00;;;16.30
45850;BMP180;10739;52.198;20.908;2023-05-19T08:15:21;101432.00;;;16.30
45850;BMP180;10739;52.198;20.908;2023-05-19T08:17:47;101433.00;;;16.40
45850;BMP180;10739;52.198;20.908;2023-05-19T08:20:13;101435.00;;;16.40
45850;BMP180;10739;52.198;20.908;2023-05-19T08:22:40;101433.00;;;16.30
45850;BMP180;10739;52.198;20.908;2023-05-19T08:25:06;101433.00;;;16.40
45850;BMP180;10739;52.198;20.908;2023-05-19T08:27:33;101427.00;;;16.50
45850;BMP180;10739;52.198;20.908;2023-05-19T08:29:59;101429.00;;;16.50
45850;BMP180;10739;52.198;20.908;2023-05-19T08:32:25;101428.00;;;16.50
45850;BMP180;10739;52.198;20.908;2023-05-19T08:34:52;101434.00;;;16.20
45850;BMP180;10739;52.198;20.908;2023-05-19T08:37:18;101426.00;;;16.20
45850;BMP180;10739;52.198;20.908;2023-05-19T08:39:44;101429.00;;;16.50
45850;BMP180;10739;52.198;20.908;2023-05-19T08:42:11;101435.00;;;16.30
45850;BMP180;10739;52.198;20.908;2023-05-19T08:44:37;101428.00;;;16.30
45850;BMP180;10739;52.198;20.908;2023-05-19T08:47:05;101426.00;;;16.30
45850;BMP180;10739;52.198;20.908;2023-05-19T08:49:43;101423.00;;;16.40
45850;BMP180;10739;52.198;20.908;2023-05-19T08:55:30;101419.00;;;16.70
45850;BMP180;10739;52.198;20.908;2023-05-19T08:58:02;101424.00;;;16.60
45850;BMP180;10739;52.198;20.908;2023-05-19T09:00:29;101433.00;;;16.50
45850;BMP180;10739;52.198;20.908;2023-05-19T09:02:56;101430.00;;;16.50
45850;BMP180;10739;52.198;20.908;2023-05-19T09:05:23;101429.00;;;16.50
45850;BMP180;10739;52.198;20.908;2023-05-19T09:07:49;101432.00;;;16.60
45850;BMP180;10739;52.198;20.908;2023-05-19T09:10:15;101434.00;;;16.80
45850;BMP180;10739;52.198;20.908;2023-05-19T09:12:46;101435.00;;;17.00
45850;BMP180;10739;52.198;20.908;2023-05-19T09:15:16;101431.00;;;16.90
45850;BMP180;10739;52.198;20.908;2023-05-19T09:17:46;101434.00;;;16.90
45850;BMP180;10739;52.198;20.908;2023-05-19T09:20:16;101440.00;;;16.70
45850;BMP180;10739;52.198;20.908;2023-05-19T09:22:43;101429.00;;;16.80
45850;BMP180;10739;52.198;20.908;2023-05-19T09:25:20;101436.00;;;16.90
45850;BMP180;10739;52.198;20.908;2023-05-19T09:27:47;101435.00;;;16.90
45850;BMP180;10739;52.198;20.908;2023-05-19T09:30:16;101424.00;;;17.20
45850;BMP180;10739;52.198;20.908;2023-05-19T09:32:43;101424.00;;;17.20
45850;BMP180;10739;52.198;20.908;2023-05-19T09:35:11;101427.00;;;17.30
45850;BMP180;10739;52.198;20.908;2023-05-19T09:37:42;101429.00;;;16.90
45850;BMP180;10739;52.198;20.908;2023-05-19T09:40:09;101429.00;;;16.90
45850;BMP180;10739;52.198;20.908;2023-05-19T09:42:39;101429.00;;;17.10
45850;BMP180;10739;52.198;20.908;2023-05-19T09:45:07;101428.00;;;16.70
45850;BMP180;10739;52.198;20.908;2023-05-19T09:47:40;101419.00;;;17.30
45850;BMP180;10739;52.198;20.908;2023-05-19T09:50:10;101438.00;;;17.30
45850;BMP180;10739;52.198;20.908;2023-05-19T09:52:37;101434.00;;;17.60
45850;BMP180;10739;52.198;20.908;2023-05-19T09:55:13;101426.00;;;17.30
45850;BMP180;10739;52.198;20.908;2023-05-19T09:57:40;101427.00;;;17.30
45850;BMP180;10739;52.198;20.908;2023-05-19T10:00:08;101430.00;;;17.10
45850;BMP180;10739;52.198;20.908;2023-05-19T10:02:47;101425.00;;;17.30
45850;BMP180;10739;52.198;20.908;2023-05-19T10:05:19;101430.00;;;17.50
45850;BMP180;10739;52.198;20.908;2023-05-19T10:07:46;101431.00;;;17.00
45850;BMP180;10739;52.198;20.908;2023-05-19T10:10:14;101426.00;;;17.20
45850;BMP180;10739;52.198;20.908;2023-05-19T10:12:41;101426.00;;;17.20
45850;BMP180;10739;52.198;20.908;2023-05-19T10:15:12;101429.00;;;17.30
45850;BMP180;10739;52.198;20.908;2023-05-19T10:17:40;101418.00;;;17.10
45850;BMP180;10739;52.198;20.908;2023-05-19T10:20:12;101420.00;;;17.30
45850;BMP180;10739;52.198;20.908;2023-05-19T10:22:40;101422.00;;;17.30
45850;BMP180;10739;52.198;20.908;2023-05-19T10:25:08;101418.00;;;17.60
45850;BMP180;10739;52.198;20.908;2023-05-19T10:27:38;101418.00;;;17.70
45850;BMP180;10739;52.198;20.908;2023-05-19T10:30:13;101407.00;;;17.80
45850;BMP180;10739;52.198;20.908;2023-05-19T10:32:43;101415.00;;;18.20
45850;BMP180;10739;52.198;20.908;2023-05-19T10:38:32;101410.00;;;18.30
45850;BMP180;10739;52.198;20.908;2023-05-19T10:46:42;101407.00;;;18.40
45850;BMP180;10739;52.198;20.908;2023-05-19T10:49:08;101402.00;;;18.30
45850;BMP180;10739;52.198;20.908;2023-05-19T10:51:35;101413.00;;;18.20
45850;BMP180;10739;52.198;20.908;2023-05-19T10:54:07;101409.00;;;18.00
45850;BMP180;10739;52.198;20.908;2023-05-19T10:56:38;101406.00;;;18.10
45850;BMP180;10739;52.198;20.908;2023-05-19T10:59:30;101401.00;;;18.50
45850;BMP180;10739;52.198;20.908;2023-05-19T11:02:02;101407.00;;;18.30
45850;BMP180;10739;52.198;20.908;2023-05-19T11:07:19;101413.00;;;18.30
45850;BMP180;10739;52.198;20.908;2023-05-19T11:09:53;101401.00;;;18.20
45850;BMP180;10739;52.198;20.908;2023-05-19T11:12:23;101402.00;;;18.40
45850;BMP180;10739;52.198;20.908;2023-05-19T11:14:54;101403.00;;;18.40
45850;BMP180;10739;52.198;20.908;2023-05-19T11:17:20;101407.00;;;18.30
45850;BMP180;10739;52.198;20.908;2023-05-19T11:19:54;101412.00;;;18.50
45850;BMP180;10739;52.198;20.908;2023-05-19T11:22:27;101410.00;;;18.40
45850;BMP180;10739;52.198;20.908;2023-05-19T11:24:54;101420.00;;;18.20
45850;BMP180;10739;52.198;20.908;2023-05-19T11:27:32;101410.00;;;18.50
45850;BMP180;10739;52.198;20.908;2023-05-19T11:30:10;101406.00;;;18.80
45850;BMP180;10739;52.198;20.908;2023-05-19T11:32:39;101408.00;;;18.90
45850;BMP180;10739;52.198;20.908;2023-05-19T11:35:09;101411.00;;;18.90
45850;BMP180;10739;52.198;20.908;2023-05-19T11:37:36;101405.00;;;19.00
45850;BMP180;10739;52.198;20.908;2023-05-19T11:40:06;101411.00;;;18.20
45850;BMP180;10739;52.198;20.908;2023-05-19T11:42:34;101412.00;;;18.70
45850;BMP180;10739;52.198;20.908;2023-05-19T11:45:02;101410.00;;;18.80
45850;BMP180;10739;52.198;20.908;2023-05-19T11:47:31;101418.00;;;18.90
45850;BMP180;10739;52.198;20.908;2023-05-19T11:50:00;101417.00;;;18.90
45850;BMP180;10739;52.198;20.908;2023-05-19T11:52:26;101413.00;;;19.00
45850;BMP180;10739;52.198;20.908;2023-05-19T11:54:53;101408.00;;;18.90
45850;BMP180;10739;52.198;20.908;2023-05-19T11:57:19;101397.00;;;19.00
45850;BMP180;10739;52.198;20.908;2023-05-19T11:59:46;101413.00;;;18.70
45850;BMP180;10739;52.198;20.908;2023-05-19T12:02:19;101414.00;;;18.90
45850;BMP180;10739;52.198;20.908;2023-05-19T12:04:50;101411.00;;;19.10
45850;BMP180;10739;52.198;20.908;2023-05-19T12:07:22;101417.00;;;19.10
45850;BMP180;10739;52.198;20.908;2023-05-19T12:09:51;101416.00;;;18.80
45850;BMP180;10739;52.198;20.908;2023-05-19T12:12:19;101412.00;;;19.00
45850;BMP180;10739;52.198;20.908;2023-05-19T12:14:48;101417.00;;;19.20
45850;BMP180;10739;52.198;20.908;2023-05-19T12:17:19;101423.00;;;18.90
45850;BMP180;10739;52.198;20.908;2023-05-19T12:19:47;101417.00;;;18.70
45850;BMP180;10739;52.198;20.908;2023-05-19T12:22:15;101417.00;;;18.70
45850;BMP180;10739;52.198;20.908;2023-05-19T12:24:43;101414.00;;;18.80
45850;BMP180;10739;52.198;20.908;2023-05-19T12:27:17;101406.00;;;18.90
45850;BMP180;10739;52.198;20.908;2023-05-19T12:29:51;101411.00;;;18.50
45850;BMP180;10739;52.198;20.908;2023-05-19T12:32:21;101414.00;;;19.00
45850;BMP180;10739;52.198;20.908;2023-05-19T12:34:49;101414.00;;;18.90
45850;BMP180;10739;52.198;20.908;2023-05-19T12:37:16;101405.00;;;18.90
45850;BMP180;10739;52.198;20.908;2023-05-19T12:39:42;101407.00;;;19.20
45850;BMP180;10739;52.198;20.908;2023-05-19T12:42:10;101416.00;;;18.50
45850;BMP180;10739;52.198;20.908;2023-05-19T12:44:45;101412.00;;;18.80
45850;BMP180;10739;52.198;20.908;2023-05-19T12:47:13;101414.00;;;18.70
45850;BMP180;10739;52.198;20.908;2023-05-19T12:50:07;101398.00;;;18.50
45850;BMP180;10739;52.198;20.908;2023-05-19T12:52:45;101401.00;;;18.50
45850;BMP180;10739;52.198;20.908;2023-05-19T12:55:12;101407.00;;;18.80
45850;BMP180;10739;52.198;20.908;2023-05-19T12:57:44;101403.00;;;18.80
45850;BMP180;10739;52.198;20.908;2023-05-19T13:03:06;101394.00;;;19.10
45850;BMP180;10739;52.198;20.908;2023-05-19T13:05:40;101394.00;;;19.00
45850;BMP180;10739;52.198;20.908;2023-05-19T13:08:14;101388.00;;;19.10
45850;BMP180;10739;52.198;20.908;2023-05-19T13:10:43;101397.00;;;19.10
45850;BMP180;10739;52.198;20.908;2023-05-19T13:13:10;101401.00;;;19.20
45850;BMP180;10739;52.198;20.908;2023-05-19T13:15:45;101400.00;;;19.00
45850;BMP180;10739;52.198;20.908;2023-05-19T13:18:14;101406.00;;;19.20
45850;BMP180;10739;52.198;20.908;2023-05-19T13:20:42;101406.00;;;19.10
45850;BMP180;10739;52.198;20.908;2023-05-19T13:23:13;101403.00;;;19.10
45850;BMP180;10739;52.198;20.908;2023-05-19T13:25:40;101401.00;;;19.00
45850;BMP180;10739;52.198;20.908;2023-05-19T13:28:06;101399.00;;;19.00
45850;BMP180;10739;52.198;20.908;2023-05-19T13:30:38;101402.00;;;19.10
45850;BMP180;10739;52.198;20.908;2023-05-19T13:33:05;101406.00;;;18.60
45850;BMP180;10739;52.198;20.908;2023-05-19T13:35:31;101398.00;;;19.00
45850;BMP180;10739;52.198;20.908;2023-05-19T13:38:08;101404.00;;;19.20
45850;BMP180;10739;52.198;20.908;2023-05-19T13:40:35;101396.00;;;19.30
45850;BMP180;10739;52.198;20.908;2023-05-19T13:43:03;101397.00;;;19.00
45850;BMP180;10739;52.198;20.908;2023-05-19T13:45:29;101393.00;;;19.20
45850;BMP180;10739;52.198;20.908;2023-05-19T13:47:56;101392.00;;;19.20
45850;BMP180;10739;52.198;20.908;2023-05-19T13:50:22;101394.00;;;19.00
45850;BMP180;10739;52.198;20.908;2023-05-19T13:52:48;101399.00;;;19.00
45850;BMP180;10739;52.198;20.908;2023-05-19T13:55:15;101393.00;;;19.10
45850;BMP180;10739;52.198;20.908;2023-05-19T13:57:41;101400.00;;;18.70
45850;BMP180;10739;52.198;20.908;2023-05-19T14:00:08;101401.00;;;18.80
45850;BMP180;10739;52.198;20.908;2023-05-19T14:02:35;101395.00;;;18.80
45850;BMP180;10739;52.198;20.908;2023-05-19T14:05:03;101392.00;;;19.00
45850;BMP180;10739;52.198;20.908;2023-05-19T14:07:30;101394.00;;;19.20
45850;BMP180;10739;52.198;20.908;2023-05-19T14:10:03;101386.00;;;19.10
45850;BMP180;10739;52.198;20.908;2023-05-19T14:12:34;101402.00;;;19.30
45850;BMP180;10739;52.198;20.908;2023-05-19T14:15:00;101404.00;;;19.20
45850;BMP180;10739;52.198;20.908;2023-05-19T14:17:27;101396.00;;;19.00
45850;BMP180;10739;52.198;20.908;2023-05-19T14:19:53;101401.00;;;18.80